sensor_id;sensor_type;location;lat;lon;timestamp;P1;durP1;ratioP1;P2;durP2;ratioP2
16063;SDS011;8136;53.172;8.256;2023-04-01T00:01:55;11.03;;;8.70;;
16063;SDS011;8136;53.172;8.256;2023-04-01T00:04:22;10.13;;;8.37;;
16063;SDS011;8136;53.172;8.256;2023-04-01T00:06:49;8.87;;;7.50;;
16063;SDS011;8136;53.172;8.256;2023-04-01T00:09:16;10.10;;;8.47;;
16063;SDS011;8136;53.172;8.256;2023-04-01T00:11:43;11.57;;;8.20;;
16063;SDS011;8136;53.172;8.256;2023-04-01T00:14:12;10.40;;;8.47;;
16063;SDS011;8136;53.172;8.256;2023-04-01T00:16:38;9.67;;;8.30;;
16063;SDS011;8136;53.172;8.256;2023-04-01T00:19:05;9.80;;;8.80;;
16063;SDS011;8136;53.172;8.256;2023-04-01T00:21:32;11.17;;;8.50;;
16063;SDS011;8136;53.172;8.256;2023-04-01T00:24:00;9.67;;;8.67;;
16063;SDS011;8136;53.172;8.256;2023-04-01T00:26:26;9.83;;;8.37;;
16063;SDS011;8136;53.172;8.256;2023-04-01T00:28:53;12.27;;;8.77;;
16063;SDS011;8136;53.172;8.256;2023-04-01T00:31:21;10.50;;;8.93;;
16063;SDS011;8136;53.172;8.256;2023-04-01T00:33:48;9.63;;;8.60;;
16063;SDS011;8136;53.172;8.256;2023-04-01T00:36:16;10.67;;;8.33;;
16063;SDS011;8136;53.172;8.256;2023-04-01T00:38:44;10.00;;;8.93;;
16063;SDS011;8136;53.172;8.256;2023-04-01T00:41:12;9.17;;;8.13;;
16063;SDS011;8136;53.172;8.256;2023-04-01T00:43:40;10.13;;;9.03;;
16063;SDS011;8136;53.172;8.256;2023-04-01T00:46:07;11.77;;;8.70;;
16063;SDS011;8136;53.172;8.256;2023-04-01T00:48:36;9.70;;;8.70;;
16063;SDS011;8136;53.172;8.256;2023-04-01T00:51:06;9.90;;;8.53;;
16063;SDS011;8136;53.172;8.256;2023-04-01T00:53:36;11.30;;;9.07;;
16063;SDS011;8136;53.172;8.256;2023-04-01T00:56:07;10.00;;;8.90;;
16063;SDS011;8136;53.172;8.256;2023-04-01T00:58:39;10.70;;;8.73;;
16063;SDS011;8136;53.172;8.256;2023-04-01T01:01:10;11.37;;;8.97;;
16063;SDS011;8136;53.172;8.256;2023-04-01T01:03:38;10.37;;;9.27;;
16063;SDS011;8136;53.172;8.256;2023-04-01T01:06:10;12.30;;;8.80;;
16063;SDS011;8136;53.172;8.256;2023-04-01T01:08:58;10.27;;;9.23;;
16063;SDS011;8136;53.172;8.256;2023-04-01T01:11:35;11.53;;;9.00;;
16063;SDS011;8136;53.172;8.256;2023-04-01T01:14:08;10.70;;;9.57;;
16063;SDS011;8136;53.172;8.256;2023-04-01T01:16:45;10.27;;;9.20;;
16063;SDS011;8136;53.172;8.256;2023-04-01T01:19:25;11.37;;;10.17;;
16063;SDS011;8136;53.172;8.256;2023-04-01T01:22:36;11.27;;;9.77;;
16063;SDS011;8136;53.172;8.256;2023-04-01T01:25:21;10.13;;;9.07;;
16063;SDS011;8136;53.172;8.256;2023-04-01T01:27:58;11.60;;;9.10;;
16063;SDS011;8136;53.172;8.256;2023-04-01T01:30:43;10.47;;;9.00;;
16063;SDS011;8136;53.172;8.256;2023-04-01T01:33:24;10.87;;;9.00;;
16063;SDS011;8136;53.172;8.256;2023-04-01T01:36:03;12.07;;;9.80;;
16063;SDS011;8136;53.172;8.256;2023-04-01T01:38:33;9.77;;;8.77;;
16063;SDS011;8136;53.172;8.256;2023-04-01T01:41:01;10.10;;;8.70;;
16063;SDS011;8136;53.172;8.256;2023-04-01T01:43:31;10.70;;;9.20;;
16063;SDS011;8136;53.172;8.256;2023-04-01T01:46:03;10.10;;;9.03;;
16063;SDS011;8136;53.172;8.256;2023-04-01T01:48:34;8.60;;;7.70;;
16063;SDS011;8136;53.172;8.256;2023-04-01T01:51:03;9.53;;;8.53;;
16063;SDS011;8136;53.172;8.256;2023-04-01T01:53:32;11.00;;;8.50;;
16063;SDS011;8136;53.172;8.256;2023-04-01T01:55:58;10.33;;;8.80;;
16063;SDS011;8136;53.172;8.256;2023-04-01T01:58:27;10.70;;;9.03;;
16063;SDS011;8136;53.172;8.256;2023-04-01T02:01:00;9.70;;;8.67;;
16063;SDS011;8136;53.172;8.256;2023-04-01T02:03:30;9.90;;;8.90;;
16063;SDS011;8136;53.172;8.256;2023-04-01T02:06:01;10.10;;;9.00;;
16063;SDS011;8136;53.172;8.256;2023-04-01T02:08:33;9.67;;;8.37;;
16063;SDS011;8136;53.172;8.256;2023-04-01T02:11:04;11.97;;;8.77;;
16063;SDS011;8136;53.172;8.256;2023-04-01T02:13:34;11.43;;;9.10;;
16063;SDS011;8136;53.172;8.256;2023-04-01T02:16:05;10.90;;;9.33;;
16063;SDS011;8136;53.172;8.256;2023-04-01T02:18:38;9.63;;;8.63;;
16063;SDS011;8136;53.172;8.256;2023-04-01T02:21:06;9.73;;;8.73;;
16063;SDS011;8136;53.172;8.256;2023-04-01T02:23:35;11.30;;;9.43;;
16063;SDS011;8136;53.172;8.256;2023-04-01T02:26:03;10.50;;;9.40;;
16063;SDS011;8136;53.172;8.256;2023-04-01T02:28:33;11.57;;;9.77;;
16063;SDS011;8136;53.172;8.256;2023-04-01T02:31:02;10.83;;;9.73;;
16063;SDS011;8136;53.172;8.256;2023-04-01T02:33:30;12.53;;;10.23;;
16063;SDS011;8136;53.172;8.256;2023-04-01T02:35:57;11.17;;;9.40;;
16063;SDS011;8136;53.172;8.256;2023-04-01T02:38:26;10.60;;;9.03;;
16063;SDS011;8136;53.172;8.256;2023-04-01T02:40:56;11.10;;;9.77;;
16063;SDS011;8136;53.172;8.256;2023-04-01T02:43:24;14.33;;;9.73;;
16063;SDS011;8136;53.172;8.256;2023-04-01T02:45:50;11.03;;;9.83;;
16063;SDS011;8136;53.172;8.256;2023-04-01T02:48:17;10.43;;;9.33;;
16063;SDS011;8136;53.172;8.256;2023-04-01T02:50:45;12.40;;;10.30;;
16063;SDS011;8136;53.172;8.256;2023-04-01T02:53:12;10.60;;;9.57;;
16063;SDS011;8136;53.172;8.256;2023-04-01T02:55:41;12.87;;;10.63;;
16063;SDS011;8136;53.172;8.256;2023-04-01T02:58:07;11.27;;;10.07;;
16063;SDS011;8136;53.172;8.256;2023-04-01T03:00:34;11.77;;;9.50;;
16063;SDS011;8136;53.172;8.256;2023-04-01T03:03:01;11.07;;;9.90;;
16063;SDS011;8136;53.172;8.256;2023-04-01T03:05:28;14.00;;;10.40;;
16063;SDS011;8136;53.172;8.256;2023-04-01T03:07:55;12.67;;;10.10;;
16063;SDS011;8136;53.172;8.256;2023-04-01T03:10:22;11.73;;;9.97;;
16063;SDS011;8136;53.172;8.256;2023-04-01T03:12:51;14.00;;;10.83;;
16063;SDS011;8136;53.172;8.256;2023-04-01T03:15:18;11.53;;;9.97;;
16063;SDS011;8136;53.172;8.256;2023-04-01T03:17:44;12.43;;;10.10;;
16063;SDS011;8136;53.172;8.256;2023-04-01T03:20:12;13.70;;;11.43;;
16063;SDS011;8136;53.172;8.256;2023-04-01T03:22:40;13.13;;;10.13;;
16063;SDS011;8136;53.172;8.256;2023-04-01T03:25:07;13.07;;;10.43;;
16063;SDS011;8136;53.172;8.256;2023-04-01T03:27:36;11.83;;;10.07;;
16063;SDS011;8136;53.172;8.256;2023-04-01T03:30:05;14.00;;;10.77;;
16063;SDS011;8136;53.172;8.256;2023-04-01T03:32:32;13.93;;;10.43;;
16063;SDS011;8136;53.172;8.256;2023-04-01T03:34:59;13.70;;;11.73;;
16063;SDS011;8136;53.172;8.256;2023-04-01T03:37:26;12.03;;;10.37;;
16063;SDS011;8136;53.172;8.256;2023-04-01T03:39:53;13.43;;;10.10;;
16063;SDS011;8136;53.172;8.256;2023-04-01T03:42:20;12.77;;;10.33;;
16063;SDS011;8136;53.172;8.256;2023-04-01T03:44:47;11.80;;;10.03;;
16063;SDS011;8136;53.172;8.256;2023-04-01T03:47:15;13.63;;;10.53;;
16063;SDS011;8136;53.172;8.256;2023-04-01T03:49:42;13.43;;;10.20;;
16063;SDS011;8136;53.172;8.256;2023-04-01T03:52:09;12.63;;;10.13;;
16063;SDS011;8136;53.172;8.256;2023-04-01T03:54:36;14.17;;;10.80;;
16063;SDS011;8136;53.172;8.256;2023-04-01T03:57:03;15.50;;;10.17;;
16063;SDS011;8136;53.172;8.256;2023-04-01T03:59:30;13.43;;;11.00;;
16063;SDS011;8136;53.172;8.256;2023-04-01T04:01:57;12.10;;;9.70;;
16063;SDS011;8136;53.172;8.256;2023-04-01T04:04:25;12.00;;;9.83;;
16063;SDS011;8136;53.172;8.256;2023-04-01T04:06:53;14.30;;;11.03;;
16063;SDS011;8136;53.172;8.256;2023-04-01T04:09:20;13.83;;;10.20;;
16063;SDS011;8136;53.172;8.256;2023-04-01T04:11:46;11.40;;;9.87;;
16063;SDS011;8136;53.172;8.256;2023-04-01T04:14:13;11.83;;;9.93;;
16063;SDS011;8136;53.172;8.256;2023-04-01T04:16:40;15.90;;;10.40;;
16063;SDS011;8136;53.172;8.256;2023-04-01T04:19:07;12.23;;;9.83;;
16063;SDS011;8136;53.172;8.256;2023-04-01T04:21:35;15.80;;;10.40;;
16063;SDS011;8136;53.172;8.256;2023-04-01T04:24:02;12.83;;;9.53;;
16063;SDS011;8136;53.172;8.256;2023-04-01T04:26:29;11.10;;;9.33;;
16063;SDS011;8136;53.172;8.256;2023-04-01T04:28:56;13.97;;;9.27;;
16063;SDS011;8136;53.172;8.256;2023-04-01T04:31:23;12.83;;;9.63;;
16063;SDS011;8136;53.172;8.256;2023-04-01T04:33:51;10.53;;;8.50;;
16063;SDS011;8136;53.172;8.256;2023-04-01T04:36:18;12.30;;;9.37;;
16063;SDS011;8136;53.172;8.256;2023-04-01T04:38:47;13.67;;;9.70;;
16063;SDS011;8136;53.172;8.256;2023-04-01T04:41:15;11.83;;;9.50;;
16063;SDS011;8136;53.172;8.256;2023-04-01T04:43:48;10.73;;;8.80;;
16063;SDS011;8136;53.172;8.256;2023-04-01T04:46:18;13.33;;;10.17;;
16063;SDS011;8136;53.172;8.256;2023-04-01T04:48:45;13.03;;;10.10;;
16063;SDS011;8136;53.172;8.256;2023-04-01T04:51:20;12.57;;;10.27;;
16063;SDS011;8136;53.172;8.256;2023-04-01T04:53:50;11.17;;;9.40;;
16063;SDS011;8136;53.172;8.256;2023-04-01T04:59:27;13.77;;;9.70;;
16063;SDS011;8136;53.172;8.256;2023-04-01T05:05:26;10.67;;;8.87;;
16063;SDS011;8136;53.172;8.256;2023-04-01T05:08:01;10.77;;;9.63;;
16063;SDS011;8136;53.172;8.256;2023-04-01T05:11:19;12.93;;;9.03;;
16063;SDS011;8136;53.172;8.256;2023-04-01T05:14:22;10.90;;;9.07;;
16063;SDS011;8136;53.172;8.256;2023-04-01T05:17:15;11.40;;;7.87;;
16063;SDS011;8136;53.172;8.256;2023-04-01T05:20:13;11.10;;;8.53;;
16063;SDS011;8136;53.172;8.256;2023-04-01T05:22:53;11.47;;;8.47;;
16063;SDS011;8136;53.172;8.256;2023-04-01T05:25:39;11.03;;;8.33;;
16063;SDS011;8136;53.172;8.256;2023-04-01T05:38:35;10.00;;;7.77;;
16063;SDS011;8136;53.172;8.256;2023-04-01T05:41:16;9.70;;;7.73;;
16063;SDS011;8136;53.172;8.256;2023-04-01T05:47:49;8.27;;;7.37;;
16063;SDS011;8136;53.172;8.256;2023-04-01T05:50:19;10.43;;;8.10;;
16063;SDS011;8136;53.172;8.256;2023-04-01T11:28:57;4.80;;;4.23;;
16063;SDS011;8136;53.172;8.256;2023-04-01T11:31:58;3.90;;;3.60;;
16063;SDS011;8136;53.172;8.256;2023-04-01T11:34:50;4.77;;;3.60;;
16063;SDS011;8136;53.172;8.256;2023-04-01T11:41:19;3.90;;;3.60;;
16063;SDS011;8136;53.172;8.256;2023-04-01T11:50:30;4.07;;;3.77;;
16063;SDS011;8136;53.172;8.256;2023-04-01T11:53:09;4.70;;;4.30;;
16063;SDS011;8136;53.172;8.256;2023-04-01T11:55:54;4.93;;;4.53;;
16063;SDS011;8136;53.172;8.256;2023-04-01T12:05:07;5.37;;;4.97;;
16063;SDS011;8136;53.172;8.256;2023-04-01T13:25:32;2.90;;;2.70;;
16063;SDS011;8136;53.172;8.256;2023-04-01T13:28:11;2.90;;;2.70;;
16063;SDS011;8136;53.172;8.256;2023-04-01T13:30:43;2.50;;;2.40;;
16063;SDS011;8136;53.172;8.256;2023-04-01T13:33:21;3.30;;;3.10;;
16063;SDS011;8136;53.172;8.256;2023-04-01T13:36:05;3.20;;;2.53;;
16063;SDS011;8136;53.172;8.256;2023-04-01T13:38:47;3.03;;;2.83;;
16063;SDS011;8136;53.172;8.256;2023-04-01T13:41:29;2.60;;;2.50;;
16063;SDS011;8136;53.172;8.256;2023-04-01T13:44:10;2.20;;;2.10;;
16063;SDS011;8136;53.172;8.256;2023-04-01T13:47:03;2.70;;;2.50;;
16063;SDS011;8136;53.172;8.256;2023-04-01T13:52:58;2.17;;;1.80;;
16063;SDS011;8136;53.172;8.256;2023-04-01T13:55:47;1.60;;;1.50;;
16063;SDS011;8136;53.172;8.256;2023-04-01T13:58:27;2.70;;;1.80;;
16063;SDS011;8136;53.172;8.256;2023-04-01T14:01:05;2.23;;;2.13;;
16063;SDS011;8136;53.172;8.256;2023-04-01T14:11:18;3.43;;;3.13;;
16063;SDS011;8136;53.172;8.256;2023-04-01T14:24:56;2.97;;;2.67;;
16063;SDS011;8136;53.172;8.256;2023-04-01T15:23:23;6.63;;;4.80;;
16063;SDS011;8136;53.172;8.256;2023-04-01T15:26:28;5.20;;;4.70;;
16063;SDS011;8136;53.172;8.256;2023-04-01T15:29:35;5.10;;;4.60;;
16063;SDS011;8136;53.172;8.256;2023-04-01T15:39:24;4.60;;;4.20;;
16063;SDS011;8136;53.172;8.256;2023-04-01T15:49:27;3.60;;;3.23;;
16063;SDS011;8136;53.172;8.256;2023-04-01T15:52:09;4.00;;;3.63;;
16063;SDS011;8136;53.172;8.256;2023-04-01T15:55:46;5.63;;;3.60;;
16063;SDS011;8136;53.172;8.256;2023-04-01T15:59:03;4.70;;;4.00;;
16063;SDS011;8136;53.172;8.256;2023-04-01T16:02:21;5.70;;;4.30;;
16063;SDS011;8136;53.172;8.256;2023-04-01T16:05:22;4.77;;;4.20;;
16063;SDS011;8136;53.172;8.256;2023-04-01T21:38:55;6.33;;;4.17;;
16063;SDS011;8136;53.172;8.256;2023-04-01T21:45:23;5.33;;;4.60;;
16063;SDS011;8136;53.172;8.256;2023-04-01T21:48:36;5.57;;;4.43;;
16063;SDS011;8136;53.172;8.256;2023-04-01T22:05:26;6.97;;;4.00;;
16063;SDS011;8136;53.172;8.256;2023-04-01T22:07:59;5.30;;;3.93;;
16063;SDS011;8136;53.172;8.256;2023-04-01T22:10:33;7.80;;;4.73;;
16063;SDS011;8136;53.172;8.256;2023-04-01T22:13:10;6.03;;;4.00;;
16063;SDS011;8136;53.172;8.256;2023-04-01T22:15:48;8.17;;;4.10;;
16063;SDS011;8136;53.172;8.256;2023-04-01T23:51:29;3.27;;;2.27;;
16063;SDS011;8136;53.172;8.256;2023-04-01T23:54:10;2.70;;;2.30;;
16063;SDS011;8136;53.172;8.256;2023-04-01T23:56:41;7.53;;;2.33;;
16063;SDS011;8136;53.172;8.256;2023-04-01T23:59:13;4.07;;;2.20;;
